sensor_id;sensor_type;location;lat;lon;timestamp;pressure;altitude;pressure_sealevel;temperature;humidity
42727;BME280;28372;56.832;60.658;2023-01-29T00:00:07;97808.56;;;-0.98;48.40
42727;BME280;28372;56.832;60.658;2023-01-29T00:02:39;97809.94;;;-1.01;48.54
42727;BME280;28372;56.832;60.658;2023-01-29T00:05:07;97818.69;;;-1.00;48.53
42727;BME280;28372;56.832;60.658;2023-01-29T00:07:54;97808.06;;;-1.00;48.79
42727;BME280;28372;56.832;60.658;2023-01-29T00:10:22;97816.50;;;-0.98;48.10
42727;BME280;28372;56.832;60.658;2023-01-29T00:12:50;97816.44;;;-0.93;47.76
42727;BME280;28372;56.832;60.658;2023-01-29T00:15:18;97798.06;;;-0.90;48.12
42727;BME280;28372;56.832;60.658;2023-01-29T00:17:46;97804.63;;;-0.87;47.88
42727;BME280;28372;56.832;60.658;2023-01-29T00:20:14;97801.28;;;-0.93;48.00
42727;BME280;28372;56.832;60.658;2023-01-29T00:22:42;97809.75;;;-0.91;48.59
42727;BME280;28372;56.832;60.658;2023-01-29T00:25:10;97811.34;;;-0.90;48.10
42727;BME280;28372;56.832;60.658;2023-01-29T00:27:38;97794.59;;;-1.04;48.04
42727;BME280;28372;56.832;60.658;2023-01-29T00:30:07;97811.72;;;-0.82;48.25
42727;BME280;28372;56.832;60.658;2023-01-29T00:32:46;97820.75;;;-0.83;48.79
42727;BME280;28372;56.832;60.658;2023-01-29T00:35:13;97811.72;;;-0.82;48.83
42727;BME280;28372;56.832;60.658;2023-01-29T00:37:41;97813.00;;;-0.94;48.26
42727;BME280;28372;56.832;60.658;2023-01-29T00:40:10;97817.13;;;-1.01;48.38
42727;BME280;28372;56.832;60.658;2023-01-29T00:42:38;97817.81;;;-0.96;47.97
42727;BME280;28372;56.832;60.658;2023-01-29T00:45:24;97801.56;;;-0.94;48.28
42727;BME280;28372;56.832;60.658;2023-01-29T00:47:51;97807.38;;;-0.92;47.98
42727;BME280;28372;56.832;60.658;2023-01-29T00:50:20;97819.59;;;-0.91;47.73
42727;BME280;28372;56.832;60.658;2023-01-29T00:52:48;97808.84;;;-0.86;47.94
42727;BME280;28372;56.832;60.658;2023-01-29T00:55:18;97813.56;;;-0.97;47.69
42727;BME280;28372;56.832;60.658;2023-01-29T00:57:45;97821.25;;;-0.95;47.63
42727;BME280;28372;56.832;60.658;2023-01-29T01:00:15;97821.16;;;-0.90;47.88
42727;BME280;28372;56.832;60.658;2023-01-29T01:02:44;97818.09;;;-0.97;47.40
42727;BME280;28372;56.832;60.658;2023-01-29T01:05:31;97821.34;;;-1.14;47.80
42727;BME280;28372;56.832;60.658;2023-01-29T01:07:59;97816.03;;;-1.00;47.33
42727;BME280;28372;56.832;60.658;2023-01-29T01:10:31;97807.31;;;-1.01;47.62
42727;BME280;28372;56.832;60.658;2023-01-29T01:13:02;97817.69;;;-1.05;47.22
42727;BME280;28372;56.832;60.658;2023-01-29T01:15:35;97813.06;;;-1.13;47.32
42727;BME280;28372;56.832;60.658;2023-01-29T01:18:04;97817.69;;;-1.18;47.60
42727;BME280;28372;56.832;60.658;2023-01-29T01:20:33;97805.38;;;-1.28;48.25
42727;BME280;28372;56.832;60.658;2023-01-29T01:23:01;97814.31;;;-1.38;48.31
42727;BME280;28372;56.832;60.658;2023-01-29T01:25:29;97800.66;;;-1.45;48.82
42727;BME280;28372;56.832;60.658;2023-01-29T01:27:58;97816.88;;;-1.47;48.37
42727;BME280;28372;56.832;60.658;2023-01-29T01:30:26;97812.03;;;-1.45;49.43
42727;BME280;28372;56.832;60.658;2023-01-29T01:32:54;97809.56;;;-1.55;49.33
42727;BME280;28372;56.832;60.658;2023-01-29T01:35:22;97804.47;;;-1.51;49.98
42727;BME280;28372;56.832;60.658;2023-01-29T01:37:49;97793.38;;;-1.53;49.56
42727;BME280;28372;56.832;60.658;2023-01-29T01:40:19;97809.91;;;-1.43;50.26
42727;BME280;28372;56.832;60.658;2023-01-29T01:42:55;97799.78;;;-1.41;49.94
42727;BME280;28372;56.832;60.658;2023-01-29T01:45:34;97803.78;;;-1.43;49.60
42727;BME280;28372;56.832;60.658;2023-01-29T01:50:45;97803.59;;;-1.47;50.00
42727;BME280;28372;56.832;60.658;2023-01-29T01:53:19;97812.16;;;-1.50;50.06
42727;BME280;28372;56.832;60.658;2023-01-29T01:55:55;97820.59;;;-1.48;50.27
42727;BME280;28372;56.832;60.658;2023-01-29T01:58:27;97813.41;;;-1.47;50.59
42727;BME280;28372;56.832;60.658;2023-01-29T02:00:57;97821.38;;;-1.47;49.98
42727;BME280;28372;56.832;60.658;2023-01-29T02:03:27;97815.38;;;-1.39;50.31
42727;BME280;28372;56.832;60.658;2023-01-29T02:06:16;97819.16;;;-1.40;50.24
42727;BME280;28372;56.832;60.658;2023-01-29T02:09:06;97818.38;;;-1.27;50.53
42727;BME280;28372;56.832;60.658;2023-01-29T02:11:53;97804.03;;;-1.26;50.27
42727;BME280;28372;56.832;60.658;2023-01-29T02:14:21;97800.31;;;-1.25;49.99
42727;BME280;28372;56.832;60.658;2023-01-29T02:16:49;97792.63;;;-1.26;49.43
42727;BME280;28372;56.832;60.658;2023-01-29T02:24:58;97804.22;;;-1.08;49.52
42727;BME280;28372;56.832;60.658;2023-01-29T02:30:25;97794.88;;;-1.06;50.62
42727;BME280;28372;56.832;60.658;2023-01-29T02:33:04;97790.66;;;-1.07;49.84
42727;BME280;28372;56.832;60.658;2023-01-29T02:35:45;97798.75;;;-0.98;49.06
42727;BME280;28372;56.832;60.658;2023-01-29T02:38:35;97795.09;;;-0.88;49.17
42727;BME280;28372;56.832;60.658;2023-01-29T02:41:19;97801.19;;;-0.88;49.13
42727;BME280;28372;56.832;60.658;2023-01-29T02:44:09;97809.06;;;-0.82;50.08
42727;BME280;28372;56.832;60.658;2023-01-29T02:46:56;97797.16;;;-0.85;49.66
42727;BME280;28372;56.832;60.658;2023-01-29T02:49:44;97795.28;;;-0.84;49.42
42727;BME280;28372;56.832;60.658;2023-01-29T02:52:25;97804.81;;;-0.97;49.58
42727;BME280;28372;56.832;60.658;2023-01-29T02:54:59;97807.56;;;-1.02;49.47
42727;BME280;28372;56.832;60.658;2023-01-29T02:57:35;97811.50;;;-1.00;48.55
42727;BME280;28372;56.832;60.658;2023-01-29T03:00:13;97811.03;;;-1.02;48.72
42727;BME280;28372;56.832;60.658;2023-01-29T03:02:52;97813.28;;;-0.95;49.34
42727;BME280;28372;56.832;60.658;2023-01-29T03:05:39;97815.06;;;-0.91;49.28
42727;BME280;28372;56.832;60.658;2023-01-29T03:08:15;97809.66;;;-0.99;49.37
42727;BME280;28372;56.832;60.658;2023-01-29T03:10:57;97821.94;;;-0.90;49.80
42727;BME280;28372;56.832;60.658;2023-01-29T03:13:37;97816.13;;;-0.92;49.04
42727;BME280;28372;56.832;60.658;2023-01-29T03:21:57;97812.41;;;-1.05;49.37
42727;BME280;28372;56.832;60.658;2023-01-29T03:27:35;97805.50;;;-0.92;49.41
42727;BME280;28372;56.832;60.658;2023-01-29T03:30:26;97806.41;;;-0.96;48.60
42727;BME280;28372;56.832;60.658;2023-01-29T03:33:42;97802.09;;;-0.92;49.12
42727;BME280;28372;56.832;60.658;2023-01-29T03:36:31;97807.00;;;-0.85;48.99
42727;BME280;28372;56.832;60.658;2023-01-29T03:39:08;97816.72;;;-0.95;49.15
42727;BME280;28372;56.832;60.658;2023-01-29T03:42:08;97812.31;;;-0.85;49.40
42727;BME280;28372;56.832;60.658;2023-01-29T03:44:59;97814.66;;;-0.98;49.91
42727;BME280;28372;56.832;60.658;2023-01-29T03:47:44;97815.44;;;-1.11;49.55
42727;BME280;28372;56.832;60.658;2023-01-29T03:55:44;97806.03;;;-0.90;48.17
42727;BME280;28372;56.832;60.658;2023-01-29T03:58:35;97801.41;;;-0.84;48.29
42727;BME280;28372;56.832;60.658;2023-01-29T04:01:38;97799.13;;;-0.77;48.43
42727;BME280;28372;56.832;60.658;2023-01-29T04:04:45;97809.25;;;-0.79;47.90
42727;BME280;28372;56.832;60.658;2023-01-29T04:07:15;97814.16;;;-0.72;47.18
42727;BME280;28372;56.832;60.658;2023-01-29T04:09:49;97822.13;;;-0.72;46.88
42727;BME280;28372;56.832;60.658;2023-01-29T04:12:23;97811.13;;;-0.79;47.25
42727;BME280;28372;56.832;60.658;2023-01-29T04:14:53;97813.88;;;-0.84;47.12
42727;BME280;28372;56.832;60.658;2023-01-29T04:17:26;97806.41;;;-0.82;48.31
42727;BME280;28372;56.832;60.658;2023-01-29T04:20:19;97806.31;;;-0.91;48.16
42727;BME280;28372;56.832;60.658;2023-01-29T04:22:49;97813.38;;;-0.87;48.51
42727;BME280;28372;56.832;60.658;2023-01-29T04:25:24;97803.94;;;-0.79;48.68
42727;BME280;28372;56.832;60.658;2023-01-29T04:28:05;97790.34;;;-0.63;48.68
42727;BME280;28372;56.832;60.658;2023-01-29T04:30:41;97798.50;;;-0.46;49.14
42727;BME280;28372;56.832;60.658;2023-01-29T04:39:01;97807.84;;;0.33;47.14
42727;BME280;28372;56.832;60.658;2023-01-29T04:41:39;97801.91;;;0.59;47.11
42727;BME280;28372;56.832;60.658;2023-01-29T04:58:02;97800.84;;;2.84;42.12
42727;BME280;28372;56.832;60.658;2023-01-29T05:00:36;97801.81;;;3.18;40.70
42727;BME280;28372;56.832;60.658;2023-01-29T05:03:06;97795.16;;;3.54;41.28
42727;BME280;28372;56.832;60.658;2023-01-29T05:05:35;97794.00;;;3.85;40.83
42727;BME280;28372;56.832;60.658;2023-01-29T05:08:07;97779.09;;;4.18;38.96
42727;BME280;28372;56.832;60.658;2023-01-29T05:10:35;97779.31;;;4.58;36.93
42727;BME280;28372;56.832;60.658;2023-01-29T05:13:05;97777.03;;;4.82;37.58
42727;BME280;28372;56.832;60.658;2023-01-29T05:15:47;97766.66;;;5.17;35.56
42727;BME280;28372;56.832;60.658;2023-01-29T05:18:16;97777.56;;;5.49;36.58
42727;BME280;28372;56.832;60.658;2023-01-29T05:20:44;97789.03;;;5.74;36.26
42727;BME280;28372;56.832;60.658;2023-01-29T05:23:16;97787.97;;;6.04;35.21
42727;BME280;28372;56.832;60.658;2023-01-29T05:25:45;97774.91;;;6.46;34.62
42727;BME280;28372;56.832;60.658;2023-01-29T05:28:13;97775.47;;;6.84;34.18
42727;BME280;28372;56.832;60.658;2023-01-29T05:30:46;97778.75;;;7.09;33.60
42727;BME280;28372;56.832;60.658;2023-01-29T05:33:20;97784.00;;;7.53;32.14
42727;BME280;28372;56.832;60.658;2023-01-29T05:35:48;97780.66;;;7.96;31.48
42727;BME280;28372;56.832;60.658;2023-01-29T05:38:17;97788.25;;;8.10;32.22
42727;BME280;28372;56.832;60.658;2023-01-29T05:40:45;97782.03;;;8.29;31.78
42727;BME280;28372;56.832;60.658;2023-01-29T05:43:21;97778.94;;;8.46;31.03
42727;BME280;28372;56.832;60.658;2023-01-29T05:46:00;97782.44;;;8.70;29.92
42727;BME280;28372;56.832;60.658;2023-01-29T05:48:28;97787.34;;;8.87;30.62
42727;BME280;28372;56.832;60.658;2023-01-29T05:51:00;97777.69;;;8.86;31.54
42727;BME280;28372;56.832;60.658;2023-01-29T05:53:28;97783.09;;;9.09;31.00
42727;BME280;28372;56.832;60.658;2023-01-29T05:55:55;97769.34;;;9.18;29.94
42727;BME280;28372;56.832;60.658;2023-01-29T05:58:25;97776.88;;;9.32;28.86
42727;BME280;28372;56.832;60.658;2023-01-29T06:00:53;97762.75;;;9.42;29.07
42727;BME280;28372;56.832;60.658;2023-01-29T06:03:20;97765.97;;;9.52;28.06
42727;BME280;28372;56.832;60.658;2023-01-29T06:05:48;97764.19;;;9.63;28.06
42727;BME280;28372;56.832;60.658;2023-01-29T06:08:15;97764.16;;;9.90;27.96
42727;BME280;28372;56.832;60.658;2023-01-29T06:10:43;97770.59;;;9.82;27.50
42727;BME280;28372;56.832;60.658;2023-01-29T06:13:10;97762.19;;;9.87;27.52
42727;BME280;28372;56.832;60.658;2023-01-29T06:15:39;97772.69;;;9.95;27.55
42727;BME280;28372;56.832;60.658;2023-01-29T06:18:07;97763.59;;;10.07;27.02
42727;BME280;28372;56.832;60.658;2023-01-29T06:20:34;97756.09;;;9.93;27.42
42727;BME280;28372;56.832;60.658;2023-01-29T06:23:02;97766.97;;;10.01;27.59
42727;BME280;28372;56.832;60.658;2023-01-29T06:25:29;97765.78;;;9.98;27.10
42727;BME280;28372;56.832;60.658;2023-01-29T06:27:57;97766.44;;;9.88;27.22
42727;BME280;28372;56.832;60.658;2023-01-29T06:30:25;97774.63;;;9.95;27.03
42727;BME280;28372;56.832;60.658;2023-01-29T06:32:55;97765.41;;;10.00;27.53
42727;BME280;28372;56.832;60.658;2023-01-29T06:35:24;97767.66;;;10.28;28.20
42727;BME280;28372;56.832;60.658;2023-01-29T06:37:52;97773.16;;;10.69;27.10
42727;BME280;28372;56.832;60.658;2023-01-29T06:40:20;97770.66;;;10.94;26.99
42727;BME280;28372;56.832;60.658;2023-01-29T06:42:48;97764.28;;;11.21;27.52
42727;BME280;28372;56.832;60.658;2023-01-29T06:45:15;97753.25;;;11.47;26.36
42727;BME280;28372;56.832;60.658;2023-01-29T06:47:43;97744.16;;;11.92;25.46
42727;BME280;28372;56.832;60.658;2023-01-29T06:50:10;97751.22;;;12.11;25.33
42727;BME280;28372;56.832;60.658;2023-01-29T06:52:38;97758.56;;;12.07;24.55
42727;BME280;28372;56.832;60.658;2023-01-29T06:55:06;97755.44;;;11.97;24.26
42727;BME280;28372;56.832;60.658;2023-01-29T06:57:33;97765.00;;;11.80;23.58
42727;BME280;28372;56.832;60.658;2023-01-29T07:00:01;97757.25;;;11.79;24.29
42727;BME280;28372;56.832;60.658;2023-01-29T07:02:29;97762.31;;;11.80;24.25
42727;BME280;28372;56.832;60.658;2023-01-29T07:04:57;97758.03;;;11.76;23.95
42727;BME280;28372;56.832;60.658;2023-01-29T07:07:24;97773.47;;;11.64;24.63
42727;BME280;28372;56.832;60.658;2023-01-29T07:09:52;97773.31;;;11.39;24.34
42727;BME280;28372;56.832;60.658;2023-01-29T07:12:19;97768.03;;;11.05;24.50
42727;BME280;28372;56.832;60.658;2023-01-29T07:14:47;97758.81;;;10.69;24.34
42727;BME280;28372;56.832;60.658;2023-01-29T07:17:14;97758.34;;;10.22;24.50
42727;BME280;28372;56.832;60.658;2023-01-29T07:19:42;97763.22;;;9.78;24.72
42727;BME280;28372;56.832;60.658;2023-01-29T07:22:09;97765.59;;;9.53;25.45
42727;BME280;28372;56.832;60.658;2023-01-29T07:24:37;97761.94;;;9.38;26.05
42727;BME280;28372;56.832;60.658;2023-01-29T07:27:04;97755.81;;;9.15;26.19
42727;BME280;28372;56.832;60.658;2023-01-29T07:29:32;97763.91;;;8.91;25.89
42727;BME280;28372;56.832;60.658;2023-01-29T07:31:59;97755.88;;;8.72;26.65
42727;BME280;28372;56.832;60.658;2023-01-29T07:34:27;97764.88;;;8.37;26.71
42727;BME280;28372;56.832;60.658;2023-01-29T07:36:55;97734.66;;;7.85;27.20
42727;BME280;28372;56.832;60.658;2023-01-29T07:39:23;97752.50;;;7.93;27.27
42727;BME280;28372;56.832;60.658;2023-01-29T07:41:50;97753.75;;;7.80;27.56
42727;BME280;28372;56.832;60.658;2023-01-29T07:44:21;97757.91;;;7.38;27.57
42727;BME280;28372;56.832;60.658;2023-01-29T07:46:48;97743.81;;;7.09;28.10
42727;BME280;28372;56.832;60.658;2023-01-29T07:49:16;97745.22;;;6.55;28.71
42727;BME280;28372;56.832;60.658;2023-01-29T07:51:43;97741.41;;;6.12;29.05
42727;BME280;28372;56.832;60.658;2023-01-29T07:54:11;97748.97;;;5.81;29.86
42727;BME280;28372;56.832;60.658;2023-01-29T07:56:38;97744.63;;;5.48;29.92
42727;BME280;28372;56.832;60.658;2023-01-29T07:59:06;97745.97;;;5.30;30.04
42727;BME280;28372;56.832;60.658;2023-01-29T08:01:33;97746.84;;;5.22;30.41
42727;BME280;28372;56.832;60.658;2023-01-29T08:04:01;97731.56;;;4.97;31.73
42727;BME280;28372;56.832;60.658;2023-01-29T08:06:28;97746.97;;;5.01;30.80
42727;BME280;28372;56.832;60.658;2023-01-29T08:08:56;97731.38;;;5.03;31.11
42727;BME280;28372;56.832;60.658;2023-01-29T08:11:23;97738.84;;;4.85;31.02
42727;BME280;28372;56.832;60.658;2023-01-29T08:13:51;97736.03;;;4.69;31.49
42727;BME280;28372;56.832;60.658;2023-01-29T08:16:18;97727.09;;;4.52;32.04
42727;BME280;28372;56.832;60.658;2023-01-29T08:18:46;97737.44;;;4.41;32.27
42727;BME280;28372;56.832;60.658;2023-01-29T08:21:15;97734.44;;;4.09;33.06
42727;BME280;28372;56.832;60.658;2023-01-29T08:23:42;97730.00;;;4.14;33.46
42727;BME280;28372;56.832;60.658;2023-01-29T08:26:10;97737.22;;;4.01;34.05
42727;BME280;28372;56.832;60.658;2023-01-29T08:28:37;97729.22;;;3.80;34.74
42727;BME280;28372;56.832;60.658;2023-01-29T08:31:15;97724.06;;;3.74;34.57
42727;BME280;28372;56.832;60.658;2023-01-29T08:33:43;97727.91;;;3.65;34.68
42727;BME280;28372;56.832;60.658;2023-01-29T08:36:10;97732.03;;;3.62;35.06
42727;BME280;28372;56.832;60.658;2023-01-29T08:38:38;97727.97;;;3.56;35.26
42727;BME280;28372;56.832;60.658;2023-01-29T08:41:06;97731.47;;;3.56;35.36
42727;BME280;28372;56.832;60.658;2023-01-29T08:43:34;97725.31;;;3.35;35.92
42727;BME280;28372;56.832;60.658;2023-01-29T08:46:07;97712.19;;;3.42;35.39
42727;BME280;28372;56.832;60.658;2023-01-29T08:48:34;97718.44;;;3.25;36.15
42727;BME280;28372;56.832;60.658;2023-01-29T08:51:03;97718.09;;;3.35;36.03
42727;BME280;28372;56.832;60.658;2023-01-29T08:53:31;97712.25;;;3.33;36.98
42727;BME280;28372;56.832;60.658;2023-01-29T08:55:58;97695.38;;;3.20;36.43
42727;BME280;28372;56.832;60.658;2023-01-29T08:58:26;97709.47;;;3.00;38.06
42727;BME280;28372;56.832;60.658;2023-01-29T09:00:53;97707.47;;;2.97;36.67
42727;BME280;28372;56.832;60.658;2023-01-29T09:03:21;97702.28;;;2.91;36.73
42727;BME280;28372;56.832;60.658;2023-01-29T09:05:49;97711.72;;;2.59;38.32
42727;BME280;28372;56.832;60.658;2023-01-29T09:08:16;97700.59;;;2.57;39.58
42727;BME280;28372;56.832;60.658;2023-01-29T09:10:44;97700.00;;;2.43;39.44
42727;BME280;28372;56.832;60.658;2023-01-29T09:13:11;97705.53;;;2.37;38.70
42727;BME280;28372;56.832;60.658;2023-01-29T09:15:39;97709.47;;;2.22;39.53
42727;BME280;28372;56.832;60.658;2023-01-29T09:18:06;97710.28;;;2.14;39.22
42727;BME280;28372;56.832;60.658;2023-01-29T09:20:34;97704.03;;;2.01;39.27
42727;BME280;28372;56.832;60.658;2023-01-29T09:23:06;97704.50;;;1.95;39.34
42727;BME280;28372;56.832;60.658;2023-01-29T09:25:34;97715.69;;;1.88;38.75
42727;BME280;28372;56.832;60.658;2023-01-29T09:28:02;97703.25;;;2.01;39.76
42727;BME280;28372;56.832;60.658;2023-01-29T09:30:30;97694.16;;;1.93;39.94
42727;BME280;28372;56.832;60.658;2023-01-29T09:32:59;97701.06;;;1.94;40.51
42727;BME280;28372;56.832;60.658;2023-01-29T09:35:27;97699.16;;;2.12;38.86
42727;BME280;28372;56.832;60.658;2023-01-29T09:37:55;97714.88;;;2.05;40.74
42727;BME280;28372;56.832;60.658;2023-01-29T09:40:40;97704.53;;;2.03;40.43
42727;BME280;28372;56.832;60.658;2023-01-29T09:43:23;97719.88;;;2.07;41.50
42727;BME280;28372;56.832;60.658;2023-01-29T09:45:56;97697.75;;;2.06;41.21
42727;BME280;28372;56.832;60.658;2023-01-29T09:48:30;97707.78;;;2.00;42.25
42727;BME280;28372;56.832;60.658;2023-01-29T09:51:03;97687.47;;;1.78;42.64
42727;BME280;28372;56.832;60.658;2023-01-29T09:53:44;97694.66;;;1.95;42.16
42727;BME280;28372;56.832;60.658;2023-01-29T09:56:18;97687.44;;;1.87;41.48
42727;BME280;28372;56.832;60.658;2023-01-29T09:58:47;97690.72;;;1.75;40.61
42727;BME280;28372;56.832;60.658;2023-01-29T10:01:31;97688.56;;;1.68;40.30
42727;BME280;28372;56.832;60.658;2023-01-29T10:10:10;97689.78;;;1.88;41.46
42727;BME280;28372;56.832;60.658;2023-01-29T10:15:35;97697.47;;;1.81;42.21
42727;BME280;28372;56.832;60.658;2023-01-29T10:20:50;97704.88;;;1.76;40.58
42727;BME280;28372;56.832;60.658;2023-01-29T10:23:26;97679.31;;;1.66;40.59
42727;BME280;28372;56.832;60.658;2023-01-29T10:25:55;97695.94;;;1.71;42.85
42727;BME280;28372;56.832;60.658;2023-01-29T10:28:42;97706.75;;;1.84;44.17
42727;BME280;28372;56.832;60.658;2023-01-29T10:31:14;97713.19;;;1.74;43.33
42727;BME280;28372;56.832;60.658;2023-01-29T10:33:50;97707.53;;;1.49;44.09
42727;BME280;28372;56.832;60.658;2023-01-29T10:36:43;97715.22;;;1.42;45.29
42727;BME280;28372;56.832;60.658;2023-01-29T10:39:18;97703.47;;;1.43;44.04
42727;BME280;28372;56.832;60.658;2023-01-29T10:42:18;97712.84;;;1.49;42.88
42727;BME280;28372;56.832;60.658;2023-01-29T10:45:01;97708.94;;;1.47;41.33
42727;BME280;28372;56.832;60.658;2023-01-29T10:51:10;97698.41;;;1.33;41.78
42727;BME280;28372;56.832;60.658;2023-01-29T10:53:56;97699.38;;;1.28;41.14
42727;BME280;28372;56.832;60.658;2023-01-29T11:00:18;97704.19;;;1.09;41.99
42727;BME280;28372;56.832;60.658;2023-01-29T11:02:20;97700.59;;;1.05;40.13
42727;BME280;28372;56.832;60.658;2023-01-29T11:04:49;97700.59;;;1.05;39.93
42727;BME280;28372;56.832;60.658;2023-01-29T11:07:17;97697.47;;;1.11;39.73
42727;BME280;28372;56.832;60.658;2023-01-29T11:09:59;97709.72;;;1.21;41.30
42727;BME280;28372;56.832;60.658;2023-01-29T11:12:30;97702.34;;;1.18;40.74
42727;BME280;28372;56.832;60.658;2023-01-29T11:15:18;97705.91;;;1.13;41.28
42727;BME280;28372;56.832;60.658;2023-01-29T11:18:15;97695.63;;;1.29;40.97
42727;BME280;28372;56.832;60.658;2023-01-29T11:20:44;97700.59;;;1.13;41.34
42727;BME280;28372;56.832;60.658;2023-01-29T11:23:27;97704.53;;;1.25;41.26
42727;BME280;28372;56.832;60.658;2023-01-29T11:25:56;97703.09;;;1.10;40.83
42727;BME280;28372;56.832;60.658;2023-01-29T11:28:48;97714.22;;;1.20;41.14
42727;BME280;28372;56.832;60.658;2023-01-29T11:33:47;97711.56;;;1.03;43.20
42727;BME280;28372;56.832;60.658;2023-01-29T11:39:14;97701.66;;;1.03;42.77
42727;BME280;28372;56.832;60.658;2023-01-29T11:42:01;97717.00;;;0.98;42.98
42727;BME280;28372;56.832;60.658;2023-01-29T11:44:35;97720.59;;;0.84;42.60
42727;BME280;28372;56.832;60.658;2023-01-29T11:49:49;97716.22;;;0.89;44.04
42727;BME280;28372;56.832;60.658;2023-01-29T11:52:20;97709.00;;;0.80;46.19
42727;BME280;28372;56.832;60.658;2023-01-29T11:54:57;97715.59;;;0.83;45.24
42727;BME280;28372;56.832;60.658;2023-01-29T11:57:33;97707.72;;;0.78;47.55
42727;BME280;28372;56.832;60.658;2023-01-29T12:00:05;97703.50;;;0.77;47.03
42727;BME280;28372;56.832;60.658;2023-01-29T12:02:40;97710.06;;;0.71;47.91
42727;BME280;28372;56.832;60.658;2023-01-29T12:05:17;97708.16;;;0.71;48.78
42727;BME280;28372;56.832;60.658;2023-01-29T12:07:48;97695.25;;;0.47;52.03
42727;BME280;28372;56.832;60.658;2023-01-29T12:10:39;97699.50;;;0.48;52.16
42727;BME280;28372;56.832;60.658;2023-01-29T12:15:47;97702.19;;;0.25;50.37
42727;BME280;28372;56.832;60.658;2023-01-29T12:18:31;97700.97;;;0.31;51.84
42727;BME280;28372;56.832;60.658;2023-01-29T12:26:51;97703.44;;;0.28;54.06
42727;BME280;28372;56.832;60.658;2023-01-29T12:29:30;97694.16;;;0.16;52.91
42727;BME280;28372;56.832;60.658;2023-01-29T12:34:56;97682.88;;;0.11;50.30
42727;BME280;28372;56.832;60.658;2023-01-29T12:37:37;97689.56;;;0.31;47.15
42727;BME280;28372;56.832;60.658;2023-01-29T12:40:13;97694.03;;;0.22;47.88
42727;BME280;28372;56.832;60.658;2023-01-29T12:42:50;97682.44;;;0.17;48.38
42727;BME280;28372;56.832;60.658;2023-01-29T12:45:21;97684.78;;;0.19;49.28
42727;BME280;28372;56.832;60.658;2023-01-29T12:47:59;97681.50;;;0.22;49.32
42727;BME280;28372;56.832;60.658;2023-01-29T12:50:31;97671.63;;;0.14;47.99
42727;BME280;28372;56.832;60.658;2023-01-29T12:55:59;97663.94;;;0.12;48.01
42727;BME280;28372;56.832;60.658;2023-01-29T12:58:39;97667.72;;;0.11;48.20
42727;BME280;28372;56.832;60.658;2023-01-29T13:01:15;97667.88;;;0.15;45.78
42727;BME280;28372;56.832;60.658;2023-01-29T13:03:54;97676.50;;;0.21;46.78
42727;BME280;28372;56.832;60.658;2023-01-29T13:06:29;97668.38;;;0.17;47.53
42727;BME280;28372;56.832;60.658;2023-01-29T13:09:00;97672.41;;;0.14;48.07
42727;BME280;28372;56.832;60.658;2023-01-29T13:11:52;97672.41;;;0.14;49.83
42727;BME280;28372;56.832;60.658;2023-01-29T13:20:45;97666.91;;;0.11;48.20
42727;BME280;28372;56.832;60.658;2023-01-29T13:23:20;97658.78;;;0.07;47.99
42727;BME280;28372;56.832;60.658;2023-01-29T13:25:52;97664.84;;;-0.01;48.20
42727;BME280;28372;56.832;60.658;2023-01-29T13:28:24;97662.16;;;-0.01;46.71
42727;BME280;28372;56.832;60.658;2023-01-29T13:33:52;97661.38;;;-0.02;45.87
42727;BME280;28372;56.832;60.658;2023-01-29T13:36:25;97670.28;;;-0.06;46.95
42727;BME280;28372;56.832;60.658;2023-01-29T13:39:03;97660.28;;;-0.01;46.03
42727;BME280;28372;56.832;60.658;2023-01-29T13:41:40;97658.72;;;-0.02;46.77
42727;BME280;28372;56.832;60.658;2023-01-29T13:44:32;97656.25;;;0.02;46.86
42727;BME280;28372;56.832;60.658;2023-01-29T13:47:10;97656.34;;;-0.03;46.07
42727;BME280;28372;56.832;60.658;2023-01-29T13:49:51;97647.78;;;0.00;46.11
42727;BME280;28372;56.832;60.658;2023-01-29T13:52:40;97645.22;;;-0.14;46.35
42727;BME280;28372;56.832;60.658;2023-01-29T14:08:03;97626.03;;;-0.33;45.63
42727;BME280;28372;56.832;60.658;2023-01-29T14:10:37;97630.00;;;-0.22;45.60
42727;BME280;28372;56.832;60.658;2023-01-29T14:16:32;97639.38;;;-0.25;45.72
42727;BME280;28372;56.832;60.658;2023-01-29T14:18:34;97638.94;;;-0.18;45.33
42727;BME280;28372;56.832;60.658;2023-01-29T14:21:22;97635.41;;;-0.05;45.21
42727;BME280;28372;56.832;60.658;2023-01-29T14:24:42;97630.81;;;-0.13;44.98
42727;BME280;28372;56.832;60.658;2023-01-29T14:26:46;97632.50;;;-0.17;45.01
42727;BME280;28372;56.832;60.658;2023-01-29T14:29:27;97632.09;;;-0.10;46.29
42727;BME280;28372;56.832;60.658;2023-01-29T14:32:17;97640.78;;;-0.19;45.77
42727;BME280;28372;56.832;60.658;2023-01-29T14:34:54;97639.72;;;-0.18;45.44
42727;BME280;28372;56.832;60.658;2023-01-29T14:37:33;97639.25;;;-0.20;44.67
42727;BME280;28372;56.832;60.658;2023-01-29T14:42:58;97638.78;;;-0.13;45.10
42727;BME280;28372;56.832;60.658;2023-01-29T14:45:35;97639.78;;;-0.31;45.03
42727;BME280;28372;56.832;60.658;2023-01-29T14:50:44;97634.22;;;-0.21;44.88
42727;BME280;28372;56.832;60.658;2023-01-29T14:56:00;97639.44;;;-0.39;45.39
42727;BME280;28372;56.832;60.658;2023-01-29T14:58:43;97634.78;;;-0.33;44.72
42727;BME280;28372;56.832;60.658;2023-01-29T15:01:36;97652.09;;;-0.36;44.97
42727;BME280;28372;56.832;60.658;2023-01-29T15:04:06;97647.59;;;-0.35;44.82
42727;BME280;28372;56.832;60.658;2023-01-29T15:06:46;97650.09;;;-0.30;44.64
42727;BME280;28372;56.832;60.658;2023-01-29T15:12:26;97657.53;;;-0.18;44.72
42727;BME280;28372;56.832;60.658;2023-01-29T15:15:06;97655.97;;;-0.19;44.94
42727;BME280;28372;56.832;60.658;2023-01-29T15:20:29;97644.84;;;-0.44;45.92
42727;BME280;28372;56.832;60.658;2023-01-29T15:22:57;97661.97;;;-0.36;44.59
42727;BME280;28372;56.832;60.658;2023-01-29T15:25:27;97659.66;;;-0.29;46.16
42727;BME280;28372;56.832;60.658;2023-01-29T15:27:57;97665.16;;;-0.25;45.82
42727;BME280;28372;56.832;60.658;2023-01-29T15:30:32;97662.78;;;-0.27;45.68
42727;BME280;28372;56.832;60.658;2023-01-29T15:33:00;97652.03;;;-0.22;44.90